createdAt,value
2018-12-15T00:00:52.762Z,26.03
2018-12-15T00:03:22.257Z,21.17
2018-12-15T00:05:51.851Z,24.67
2018-12-15T00:08:21.447Z,24.87
2018-12-15T00:10:50.979Z,23.27
2018-12-15T00:13:20.380Z,26.00
2018-12-15T00:15:50.033Z,29.07
2018-12-15T00:18:19.575Z,30.63
2018-12-15T00:20:49.071Z,28.00
2018-12-15T00:23:18.604Z,29.63
2018-12-15T00:25:48.091Z,28.87
2018-12-15T00:28:18.269Z,30.57
2018-12-15T00:30:47.811Z,29.30
2018-12-15T00:33:17.329Z,30.53
2018-12-15T00:35:46.748Z,27.00
2018-12-15T00:38:16.220Z,34.50
2018-12-15T00:40:45.699Z,35.53
2018-12-15T00:43:15.520Z,26.17
2018-12-15T00:45:45.494Z,28.67
2018-12-15T00:48:14.827Z,28.10
2018-12-15T00:50:44.324Z,25.50
2018-12-15T00:53:13.643Z,24.77
2018-12-15T00:55:43.132Z,23.60
2018-12-15T00:58:12.663Z,21.67
2018-12-15T01:00:42.195Z,28.07
2018-12-15T01:03:11.715Z,28.20
2018-12-15T01:05:41.205Z,26.83
2018-12-15T01:08:10.628Z,22.47
2018-12-15T01:10:39.986Z,27.70
2018-12-15T01:13:09.559Z,25.33
2018-12-15T01:15:44.082Z,27.20
2018-12-15T01:18:14.204Z,27.87
2018-12-15T01:20:43.737Z,32.97
2018-12-15T01:23:13.469Z,31.80
2018-12-15T01:25:42.988Z,26.80
2018-12-15T01:28:12.312Z,27.70
2018-12-15T01:30:41.786Z,26.63
2018-12-15T01:33:11.264Z,27.83
2018-12-15T01:35:40.866Z,28.07
2018-12-15T01:38:10.713Z,27.20
2018-12-15T01:40:40.467Z,28.87
2018-12-15T01:43:09.850Z,26.37
2018-12-15T01:45:39.179Z,29.40
2018-12-15T01:48:08.672Z,24.90
2018-12-15T01:50:38.989Z,24.17
2018-12-15T01:53:08.461Z,25.63
2018-12-15T01:55:37.893Z,27.87
2018-12-15T01:58:07.292Z,27.77
2018-12-15T02:00:36.836Z,29.63
2018-12-15T02:03:07.121Z,28.70
2018-12-15T02:05:36.720Z,26.90
2018-12-15T02:08:06.850Z,27.67
2018-12-15T02:10:36.312Z,28.60
2018-12-15T02:13:14.099Z,30.23
2018-12-15T02:15:43.730Z,29.67
2018-12-15T02:18:13.211Z,28.43
2018-12-15T02:20:42.800Z,27.20
2018-12-15T02:23:12.312Z,31.50
2018-12-15T02:25:41.730Z,28.93
2018-12-15T02:28:11.564Z,29.70
2018-12-15T02:30:41.330Z,27.80
2018-12-15T02:33:10.835Z,29.07
2018-12-15T02:35:40.383Z,31.07
2018-12-15T02:38:09.889Z,33.33
2018-12-15T02:40:39.381Z,27.07
2018-12-15T02:43:09.121Z,38.47
2018-12-15T02:45:38.532Z,35.17
2018-12-15T02:48:17.632Z,25.07
2018-12-15T02:50:47.038Z,32.40
2018-12-15T02:53:16.437Z,29.07
2018-12-15T02:55:45.908Z,34.90
2018-12-15T02:58:15.411Z,33.20
2018-12-15T03:00:44.917Z,28.43
2018-12-15T03:03:14.455Z,31.77
2018-12-15T03:05:43.895Z,29.10
2018-12-15T03:08:13.289Z,33.93
2018-12-15T03:10:42.828Z,31.10
2018-12-15T03:13:12.336Z,33.13
2018-12-15T03:15:41.870Z,30.00
2018-12-15T03:18:11.447Z,36.43
2018-12-15T03:20:43.740Z,35.87
2018-12-15T03:23:13.244Z,31.23
2018-12-15T03:25:43.550Z,29.07
2018-12-15T03:28:13.324Z,30.43
2018-12-15T03:30:42.849Z,29.43
2018-12-15T03:33:12.533Z,29.63
2018-12-15T03:35:44.837Z,32.03
2018-12-15T03:38:14.375Z,31.70
2018-12-15T03:40:43.789Z,31.43
2018-12-15T03:43:14.646Z,30.87
2018-12-15T03:45:44.296Z,37.17
2018-12-15T03:48:13.795Z,36.43
2018-12-15T03:50:43.231Z,41.10
2018-12-15T03:53:13.100Z,33.60
2018-12-15T03:55:42.618Z,38.73
2018-12-15T03:58:13.091Z,31.00
2018-12-15T04:00:42.510Z,28.27
2018-12-15T04:03:11.949Z,35.00
2018-12-15T04:05:41.480Z,28.20
2018-12-15T04:08:10.954Z,36.00
2018-12-15T04:10:40.485Z,36.23
2018-12-15T04:13:09.930Z,35.40
2018-12-15T04:15:39.371Z,29.27
2018-12-15T04:18:08.977Z,29.20
2018-12-15T04:20:38.587Z,26.63
2018-12-15T04:23:09.109Z,32.30
2018-12-15T04:25:38.627Z,29.67
2018-12-15T04:28:08.333Z,26.77
2018-12-15T04:30:37.678Z,32.40
2018-12-15T04:33:07.000Z,31.93
2018-12-15T04:35:36.271Z,31.90
2018-12-15T04:38:05.715Z,36.13
2018-12-15T04:40:35.335Z,28.47
2018-12-15T04:43:04.774Z,30.37
2018-12-15T04:45:34.381Z,30.00
2018-12-15T04:48:10.849Z,37.40
2018-12-15T04:50:35.264Z,38.57
2018-12-15T04:53:04.666Z,37.70
2018-12-15T04:55:34.208Z,35.50
2018-12-15T04:58:10.862Z,31.77
2018-12-15T05:00:48.142Z,29.10
2018-12-15T05:03:27.614Z,29.87
2018-12-15T05:06:04.992Z,41.97
2018-12-15T05:08:44.509Z,48.53
2018-12-15T05:11:13.938Z,42.67
2018-12-15T05:13:43.364Z,38.83
2018-12-15T05:16:12.845Z,39.67
2018-12-15T05:18:42.284Z,41.00
2018-12-15T05:21:11.915Z,35.83
2018-12-15T05:23:41.216Z,30.13
2018-12-15T05:26:10.964Z,36.67
2018-12-15T05:28:40.466Z,40.07
2018-12-15T05:31:09.987Z,38.70
2018-12-15T05:33:39.495Z,40.30
2018-12-15T05:36:09.183Z,34.13
2018-12-15T05:38:38.657Z,37.93
2018-12-15T05:41:08.191Z,39.67
2018-12-15T05:43:37.700Z,36.93
2018-12-15T05:46:07.096Z,46.33
2018-12-15T05:48:36.773Z,37.60
2018-12-15T05:51:06.127Z,47.03
2018-12-15T05:53:35.528Z,32.63
2018-12-15T05:56:05.646Z,39.30
2018-12-15T05:58:35.094Z,34.90
2018-12-15T06:01:04.455Z,40.27
2018-12-15T06:03:33.800Z,46.23
2018-12-15T06:06:03.651Z,41.00
2018-12-15T06:08:33.258Z,35.43
2018-12-15T06:11:02.675Z,36.63
2018-12-15T06:13:32.079Z,44.33
2018-12-15T06:16:02.234Z,31.47
2018-12-15T06:18:31.974Z,39.27
2018-12-15T06:21:01.423Z,36.90
2018-12-15T06:23:31.374Z,34.00
2018-12-15T06:26:01.479Z,33.93
2018-12-15T06:28:31.064Z,35.90
2018-12-15T06:31:00.511Z,36.53
2018-12-15T06:33:29.961Z,34.80
2018-12-15T06:35:59.463Z,34.75
2018-12-15T06:38:28.883Z,35.50
2018-12-15T06:40:58.315Z,35.60
2018-12-15T06:43:28.135Z,41.47
2018-12-15T06:45:58.156Z,39.07
2018-12-15T06:48:27.582Z,39.63
2018-12-15T06:50:57.108Z,41.47
2018-12-15T06:53:26.591Z,39.90
2018-12-15T06:55:56.157Z,37.60
2018-12-15T06:58:26.170Z,35.73
2018-12-15T07:00:55.597Z,42.37
2018-12-15T07:03:25.094Z,38.87
2018-12-15T07:05:55.599Z,41.93
2018-12-15T07:08:25.096Z,41.97
2018-12-15T07:10:54.500Z,33.53
2018-12-15T07:13:23.956Z,37.53
2018-12-15T07:15:53.567Z,42.17
2018-12-15T07:18:23.182Z,40.33
2018-12-15T07:20:52.705Z,42.13
2018-12-15T07:23:22.128Z,45.37
2018-12-15T07:25:51.621Z,42.47
2018-12-15T07:28:21.183Z,36.80
2018-12-15T07:30:50.859Z,42.20
2018-12-15T07:33:20.305Z,39.87
2018-12-15T07:35:50.772Z,39.43
2018-12-15T07:38:20.349Z,41.90
2018-12-15T07:40:49.858Z,39.03
2018-12-15T07:43:19.309Z,39.10
2018-12-15T07:45:48.749Z,40.90
2018-12-15T07:48:18.253Z,39.50
2018-12-15T07:50:47.978Z,43.80
2018-12-15T07:53:17.458Z,41.83
2018-12-15T07:55:47.012Z,38.17
2018-12-15T07:58:16.473Z,37.07
2018-12-15T08:00:45.915Z,37.87
2018-12-15T08:03:15.300Z,38.80
2018-12-15T08:05:44.849Z,41.00
2018-12-15T08:08:14.393Z,41.47
2018-12-15T08:10:48.775Z,39.00
2018-12-15T08:13:28.824Z,45.20
2018-12-15T08:15:58.850Z,41.17
2018-12-15T08:18:28.284Z,35.67
2018-12-15T08:20:57.816Z,40.00
2018-12-15T08:23:27.232Z,36.57
2018-12-15T08:25:56.867Z,37.73
2018-12-15T08:28:26.356Z,43.70
2018-12-15T08:30:55.817Z,42.63
2018-12-15T08:33:25.323Z,39.57
2018-12-15T08:35:54.839Z,42.77
2018-12-15T08:38:24.582Z,39.33
2018-12-15T08:40:54.027Z,41.20
2018-12-15T08:43:23.535Z,40.43
2018-12-15T08:45:53.987Z,39.03
2018-12-15T08:48:23.803Z,38.23
2018-12-15T08:50:53.546Z,35.57
2018-12-15T08:53:22.984Z,39.00
2018-12-15T08:55:52.724Z,38.43
2018-12-15T08:58:22.140Z,38.33
2018-12-15T09:00:51.458Z,38.70
2018-12-15T09:03:20.861Z,39.00
2018-12-15T09:05:50.298Z,38.13
2018-12-15T09:08:20.059Z,41.90
2018-12-15T09:10:49.643Z,41.27
2018-12-15T09:13:18.982Z,36.57
2018-12-15T09:15:50.670Z,40.30
2018-12-15T09:18:20.100Z,37.67
2018-12-15T09:20:49.595Z,39.40
2018-12-15T09:23:19.059Z,37.03
2018-12-15T09:25:48.479Z,40.50
2018-12-15T09:28:18.008Z,39.27
2018-12-15T09:30:47.428Z,40.23
2018-12-15T09:33:16.855Z,42.07
2018-12-15T09:35:46.455Z,36.47
2018-12-15T09:38:15.879Z,39.67
2018-12-15T09:40:45.416Z,38.77
2018-12-15T09:43:15.032Z,34.20
2018-12-15T09:45:44.563Z,37.57
2018-12-15T09:48:13.903Z,42.03
2018-12-15T09:50:43.831Z,36.53
2018-12-15T09:53:14.171Z,42.40
2018-12-15T09:55:43.696Z,42.63
2018-12-15T09:58:13.620Z,36.03
2018-12-15T10:00:43.088Z,40.77
2018-12-15T10:03:12.488Z,35.07
2018-12-15T10:05:42.007Z,37.70
2018-12-15T10:08:11.803Z,39.13
2018-12-15T10:10:41.695Z,37.27
2018-12-15T10:13:11.167Z,40.00
2018-12-15T10:15:40.690Z,40.17
2018-12-15T10:18:10.132Z,43.40
2018-12-15T10:20:39.633Z,41.27
2018-12-15T10:23:09.060Z,40.97
2018-12-15T10:25:38.472Z,39.80
2018-12-15T10:28:07.812Z,39.33
2018-12-15T10:30:44.527Z,41.27
2018-12-15T10:33:13.981Z,45.90
2018-12-15T10:35:43.533Z,44.50
2018-12-15T10:38:13.035Z,45.07
2018-12-15T10:40:42.342Z,41.60
2018-12-15T10:43:11.855Z,46.27
2018-12-15T10:45:41.696Z,44.63
2018-12-15T10:48:11.071Z,43.70
2018-12-15T10:50:41.642Z,45.07
2018-12-15T10:53:11.368Z,45.83
2018-12-15T10:55:40.856Z,43.70
2018-12-15T10:58:10.699Z,45.77
2018-12-15T11:00:45.209Z,48.27
2018-12-15T11:03:14.724Z,50.13
2018-12-15T11:05:44.126Z,48.53
2018-12-15T11:08:13.636Z,51.33
2018-12-15T11:10:43.073Z,55.40
2018-12-15T11:13:12.421Z,45.13
2018-12-15T11:15:41.891Z,49.03
2018-12-15T11:18:11.448Z,47.47
2018-12-15T11:20:41.047Z,51.00
2018-12-15T11:23:10.559Z,48.17
2018-12-15T11:25:40.062Z,47.00
2018-12-15T11:28:09.941Z,49.30
2018-12-15T11:30:39.355Z,44.80
2018-12-15T11:33:09.117Z,45.80
2018-12-15T11:35:39.072Z,47.33
2018-12-15T11:38:08.472Z,49.17
2018-12-15T11:40:37.776Z,45.80
2018-12-15T11:43:07.071Z,45.77
2018-12-15T11:45:36.603Z,42.77
2018-12-15T11:48:06.120Z,43.83
2018-12-15T11:50:35.551Z,47.87
2018-12-15T11:53:04.954Z,42.50
2018-12-15T11:55:34.382Z,46.13
2018-12-15T11:58:04.028Z,45.73
2018-12-15T12:00:33.579Z,44.43
2018-12-15T12:03:02.972Z,44.73
2018-12-15T12:05:32.364Z,43.80
2018-12-15T12:08:01.705Z,46.07
2018-12-15T12:10:31.126Z,42.83
2018-12-15T12:13:00.549Z,43.20
2018-12-15T12:15:30.051Z,43.97
2018-12-15T12:17:59.556Z,42.63
2018-12-15T12:20:28.974Z,43.83
2018-12-15T12:22:58.382Z,42.13
2018-12-15T12:25:27.779Z,48.60
2018-12-15T12:27:57.434Z,44.70
2018-12-15T12:30:26.799Z,42.53
2018-12-15T12:32:59.375Z,45.63
2018-12-15T12:35:34.271Z,50.93
2018-12-15T12:38:04.027Z,41.43
2018-12-15T12:40:34.877Z,43.07
2018-12-15T12:43:04.471Z,40.53
2018-12-15T12:45:34.259Z,48.47
2018-12-15T12:48:03.774Z,42.83
2018-12-15T12:50:33.795Z,41.90
2018-12-15T12:53:03.263Z,44.40
2018-12-15T12:55:32.776Z,45.63
2018-12-15T12:58:02.298Z,40.80
2018-12-15T13:00:31.720Z,44.97
2018-12-15T13:03:01.583Z,46.00
2018-12-15T13:05:31.131Z,45.93
2018-12-15T13:08:00.516Z,48.17
2018-12-15T13:10:30.198Z,46.97
2018-12-15T13:12:59.811Z,46.10
2018-12-15T13:15:29.488Z,41.93
2018-12-15T13:17:58.840Z,45.13
2018-12-15T13:20:28.330Z,49.53
2018-12-15T13:22:59.673Z,44.90
2018-12-15T13:25:29.206Z,43.07
2018-12-15T13:27:59.533Z,46.83
2018-12-15T13:30:30.103Z,45.27
2018-12-15T13:32:59.672Z,45.17
2018-12-15T13:35:28.990Z,52.07
2018-12-15T13:38:00.026Z,51.00
2018-12-15T13:40:30.361Z,45.53
2018-12-15T13:43:01.510Z,46.07
2018-12-15T13:45:31.100Z,45.33
2018-12-15T13:48:01.748Z,44.00
2018-12-15T13:50:31.299Z,48.10
2018-12-15T13:53:01.884Z,52.73
2018-12-15T13:55:35.157Z,48.93
2018-12-15T13:58:05.123Z,45.63
2018-12-15T14:00:34.840Z,44.43
2018-12-15T14:03:06.283Z,44.73
2018-12-15T14:05:35.823Z,45.83
2018-12-15T14:08:05.224Z,52.33
2018-12-15T14:10:34.586Z,53.57
2018-12-15T14:13:04.124Z,50.07
2018-12-15T14:15:33.602Z,44.97
2018-12-15T14:18:02.968Z,52.20
2018-12-15T14:20:32.423Z,46.70
2018-12-15T14:23:02.415Z,51.83
2018-12-15T14:25:31.869Z,48.03
2018-12-15T14:28:01.433Z,43.50
2018-12-15T14:30:31.584Z,43.63
2018-12-15T14:33:01.095Z,45.27
2018-12-15T14:35:30.529Z,45.47
2018-12-15T14:38:00.733Z,42.20
2018-12-15T14:40:31.175Z,47.03
2018-12-15T14:43:00.540Z,47.23
2018-12-15T14:45:30.023Z,45.63
2018-12-15T14:47:59.430Z,46.40
2018-12-15T14:50:29.015Z,47.17
2018-12-15T14:52:59.923Z,48.87
2018-12-15T14:55:29.311Z,50.33
2018-12-15T14:57:58.676Z,47.13
2018-12-15T15:00:28.115Z,48.67
2018-12-15T15:02:57.516Z,48.90
2018-12-15T15:05:27.067Z,50.63
2018-12-15T15:07:56.996Z,53.40
2018-12-15T15:10:26.452Z,57.27
2018-12-15T15:12:55.988Z,50.27
2018-12-15T15:15:25.596Z,51.20
2018-12-15T15:17:55.644Z,46.37
2018-12-15T15:20:29.763Z,47.07
2018-12-15T15:22:57.146Z,55.13
2018-12-15T15:25:29.136Z,53.60
2018-12-15T15:27:59.662Z,43.80
2018-12-15T15:30:30.509Z,46.70
2018-12-15T15:32:59.948Z,53.27
2018-12-15T15:35:30.341Z,51.43
2018-12-15T15:37:59.784Z,48.70
2018-12-15T15:40:30.571Z,64.20
2018-12-15T15:43:00.446Z,57.50
2018-12-15T15:45:31.879Z,75.20
2018-12-15T15:48:06.003Z,70.83
2018-12-15T15:50:36.607Z,55.57
2018-12-15T15:53:06.854Z,60.67
2018-12-15T15:55:40.263Z,97.10
2018-12-15T15:58:09.873Z,71.10
2018-12-15T16:00:40.988Z,98.33
2018-12-15T16:03:15.749Z,79.20
2018-12-15T16:05:45.306Z,83.37
2018-12-15T16:08:15.153Z,85.70
2018-12-15T16:10:44.745Z,85.73
2018-12-15T16:13:14.414Z,96.97
2018-12-15T16:15:44.360Z,106.33
2018-12-15T16:18:13.858Z,134.23
2018-12-15T16:20:43.530Z,73.13
2018-12-15T16:23:13.959Z,70.40
2018-12-15T16:25:43.927Z,68.40
2018-12-15T16:28:14.619Z,62.13
2018-12-15T16:30:44.308Z,62.37
2018-12-15T16:33:20.295Z,66.50
2018-12-15T16:38:40.228Z,56.83
2018-12-15T16:41:10.063Z,61.40
2018-12-15T16:43:40.876Z,72.47
2018-12-15T16:46:13.410Z,68.87
2018-12-15T16:48:42.858Z,63.47
2018-12-15T16:51:13.182Z,67.03
2018-12-15T16:53:43.328Z,59.87
2018-12-15T16:56:14.032Z,64.23
2018-12-15T16:58:43.567Z,64.87
2018-12-15T17:01:13.083Z,77.00
2018-12-15T17:03:42.482Z,73.13
2018-12-15T17:06:11.988Z,67.20
2018-12-15T17:08:41.686Z,69.33
2018-12-15T17:11:11.896Z,223.03
2018-12-15T17:13:42.920Z,244.33
2018-12-15T17:16:12.873Z,105.70
2018-12-15T17:18:42.519Z,74.13
2018-12-15T17:21:12.084Z,60.13
2018-12-15T17:23:42.063Z,60.30
2018-12-15T17:26:12.131Z,67.03
2018-12-15T17:28:41.549Z,84.27
2018-12-15T17:31:11.383Z,76.10
2018-12-15T17:33:41.252Z,101.17
2018-12-15T17:36:10.731Z,82.90
2018-12-15T17:38:40.216Z,74.00
2018-12-15T17:41:09.746Z,98.83
2018-12-15T17:43:39.160Z,84.60
2018-12-15T17:46:09.035Z,81.23
2018-12-15T17:48:38.791Z,73.30
2018-12-15T17:51:08.387Z,73.83
2018-12-15T17:53:38.245Z,62.03
2018-12-15T17:56:07.975Z,57.60
2018-12-15T17:58:37.401Z,56.47
2018-12-15T18:01:06.805Z,62.67
2018-12-15T18:03:36.164Z,57.53
2018-12-15T18:06:05.660Z,58.67
2018-12-15T18:08:35.160Z,58.27
2018-12-15T18:11:04.559Z,59.00
2018-12-15T18:13:35.119Z,59.20
2018-12-15T18:16:04.476Z,69.73
2018-12-15T18:18:33.893Z,74.70
2018-12-15T18:21:09.611Z,60.40
2018-12-15T18:23:34.948Z,57.57
2018-12-15T18:26:04.419Z,59.47
2018-12-15T18:28:33.924Z,70.47
2018-12-15T18:31:03.327Z,74.90
2018-12-15T18:33:38.834Z,119.53
2018-12-15T18:36:08.538Z,69.60
2018-12-15T18:38:38.087Z,85.77
2018-12-15T18:41:07.693Z,93.93
2018-12-15T18:43:37.159Z,88.90
2018-12-15T18:46:06.715Z,76.17
2018-12-15T18:48:36.308Z,99.00
2018-12-15T18:51:06.803Z,74.83
2018-12-15T18:53:36.331Z,67.70
2018-12-15T18:56:06.377Z,65.40
2018-12-15T18:58:35.883Z,60.47
2018-12-15T19:01:05.518Z,79.87
2018-12-15T19:03:35.273Z,77.60
2018-12-15T19:06:05.093Z,59.53
2018-12-15T19:08:35.274Z,75.57
2018-12-15T19:11:05.040Z,88.60
2018-12-15T19:13:35.529Z,64.17
2018-12-15T19:16:05.415Z,66.47
2018-12-15T19:18:34.812Z,58.23
2018-12-15T19:21:04.199Z,65.23
2018-12-15T19:23:33.960Z,66.50
2018-12-15T19:26:03.947Z,51.17
2018-12-15T19:28:34.367Z,63.47
2018-12-15T19:31:04.211Z,71.40
2018-12-15T19:33:34.224Z,58.00
2018-12-15T19:36:04.034Z,67.43
2018-12-15T19:38:33.891Z,63.30
2018-12-15T19:41:03.748Z,59.50
2018-12-15T19:43:38.198Z,80.10
2018-12-15T19:46:07.910Z,182.20
2018-12-15T19:48:38.890Z,86.20
2018-12-15T19:51:09.030Z,90.60
2018-12-15T19:53:38.995Z,79.03
2018-12-15T19:56:08.704Z,88.40
2018-12-15T19:58:38.445Z,219.03
2018-12-15T20:01:08.306Z,293.83
2018-12-15T20:03:38.019Z,61.83
2018-12-15T20:06:08.022Z,71.17
2018-12-15T20:08:37.744Z,65.73
2018-12-15T20:11:07.741Z,76.90
2018-12-15T20:13:37.569Z,63.67
2018-12-15T20:16:07.468Z,64.43
2018-12-15T20:18:37.356Z,68.30
2018-12-15T20:21:07.168Z,56.83
2018-12-15T20:23:36.907Z,111.17
2018-12-15T20:26:06.564Z,59.60
2018-12-15T20:28:36.243Z,60.77
2018-12-15T20:31:05.678Z,64.23
2018-12-15T20:33:35.024Z,67.07
2018-12-15T20:36:04.414Z,59.13
2018-12-15T20:38:33.845Z,58.73
2018-12-15T20:41:03.396Z,61.13
2018-12-15T20:43:32.921Z,59.77
2018-12-15T20:46:02.615Z,55.30
2018-12-15T20:48:32.499Z,54.60
2018-12-15T20:51:02.005Z,143.70
2018-12-15T20:53:31.432Z,292.03
2018-12-15T20:56:00.963Z,98.77
2018-12-15T20:58:30.403Z,80.03
2018-12-15T21:00:59.908Z,96.60
2018-12-15T21:03:29.411Z,88.27
2018-12-15T21:05:59.547Z,163.03
2018-12-15T21:08:29.167Z,128.43
2018-12-15T21:10:58.663Z,95.97
2018-12-15T21:13:28.256Z,78.10
2018-12-15T21:15:58.719Z,79.60
2018-12-15T21:18:28.308Z,96.80
2018-12-15T21:20:57.803Z,72.50
2018-12-15T21:23:27.307Z,66.37
2018-12-15T21:25:56.920Z,66.73
2018-12-15T21:28:26.510Z,55.83
2018-12-15T21:30:56.116Z,48.03
2018-12-15T21:33:25.548Z,50.83
2018-12-15T21:35:54.860Z,53.50
2018-12-15T21:38:24.287Z,48.90
2018-12-15T21:40:53.720Z,53.30
2018-12-15T21:43:23.260Z,61.53
2018-12-15T21:45:52.655Z,63.33
2018-12-15T21:48:22.304Z,53.63
2018-12-15T21:50:51.587Z,44.63
2018-12-15T21:53:21.512Z,60.57
2018-12-15T21:55:50.946Z,66.30
2018-12-15T21:58:20.371Z,50.80
2018-12-15T22:00:49.892Z,49.53
2018-12-15T22:03:19.465Z,55.63
2018-12-15T22:05:49.005Z,78.03
2018-12-15T22:08:18.393Z,51.63
2018-12-15T22:10:47.940Z,61.97
2018-12-15T22:13:17.478Z,69.10
2018-12-15T22:15:47.500Z,62.07
2018-12-15T22:18:16.952Z,51.07
2018-12-15T22:20:46.668Z,48.50
2018-12-15T22:23:16.121Z,47.60
2018-12-15T22:25:45.537Z,46.70
2018-12-15T22:28:15.086Z,64.33
2018-12-15T22:30:44.630Z,48.43
2018-12-15T22:33:14.031Z,57.47
2018-12-15T22:35:43.863Z,47.67
2018-12-15T22:38:13.449Z,52.60
2018-12-15T22:40:42.952Z,49.00
2018-12-15T22:43:12.446Z,53.33
2018-12-15T22:45:41.882Z,46.30
2018-12-15T22:48:11.879Z,51.57
2018-12-15T22:50:41.416Z,51.37
2018-12-15T22:53:10.887Z,52.37
2018-12-15T22:55:40.320Z,58.97
2018-12-15T22:58:09.810Z,51.90
2018-12-15T23:01:11.723Z,50.40
2018-12-15T23:03:41.504Z,46.27
2018-12-15T23:06:10.926Z,48.83
2018-12-15T23:08:40.304Z,51.00
2018-12-15T23:11:09.812Z,49.87
2018-12-15T23:13:39.375Z,49.33
2018-12-15T23:16:08.936Z,57.97
2018-12-15T23:18:38.404Z,43.20
2018-12-15T23:21:07.928Z,44.13
2018-12-15T23:23:37.325Z,50.17
2018-12-15T23:26:06.763Z,54.60
2018-12-15T23:28:36.281Z,53.20
2018-12-15T23:31:05.851Z,49.57
2018-12-15T23:33:35.307Z,49.03
2018-12-15T23:36:04.921Z,44.53
2018-12-15T23:38:34.339Z,46.70
2018-12-15T23:41:03.676Z,46.70
2018-12-15T23:43:33.098Z,54.97
2018-12-15T23:46:02.443Z,67.13
2018-12-15T23:48:31.995Z,77.93
2018-12-15T23:51:01.399Z,63.13
2018-12-15T23:53:30.782Z,75.20
2018-12-15T23:56:00.202Z,65.93
2018-12-15T23:58:29.992Z,72.70
